sensor_id;sensor_type;location;lat;lon;timestamp;pressure;altitude;pressure_sealevel;temperature;humidity
70952;BME280;67274;55.810;37.376;2023-01-31T00:01:10;98006.00;;;-1.22;80.89
70952;BME280;67274;55.810;37.376;2023-01-31T00:03:37;97990.72;;;-1.28;81.35
70952;BME280;67274;55.810;37.376;2023-01-31T00:06:25;97999.38;;;-1.26;80.90
70952;BME280;67274;55.810;37.376;2023-01-31T00:08:52;98008.41;;;-1.27;81.21
70952;BME280;67274;55.810;37.376;2023-01-31T00:11:21;98012.38;;;-1.23;81.38
70952;BME280;67274;55.810;37.376;2023-01-31T00:13:48;98016.06;;;-1.24;80.68
70952;BME280;67274;55.810;37.376;2023-01-31T00:16:15;98005.09;;;-1.29;81.07
70952;BME280;67274;55.810;37.376;2023-01-31T00:18:42;98003.25;;;-1.29;80.41
70952;BME280;67274;55.810;37.376;2023-01-31T00:21:15;98013.13;;;-1.29;81.15
70952;BME280;67274;55.810;37.376;2023-01-31T00:23:43;98003.00;;;-1.34;81.20
70952;BME280;67274;55.810;37.376;2023-01-31T00:26:21;98008.81;;;-1.31;81.37
70952;BME280;67274;55.810;37.376;2023-01-31T00:28:49;98018.28;;;-1.28;80.97
70952;BME280;67274;55.810;37.376;2023-01-31T00:31:19;98016.44;;;-1.27;80.80
70952;BME280;67274;55.810;37.376;2023-01-31T00:33:49;97995.38;;;-1.37;81.65
70952;BME280;67274;55.810;37.376;2023-01-31T00:36:21;97999.69;;;-1.36;80.89
70952;BME280;67274;55.810;37.376;2023-01-31T00:38:49;98020.38;;;-1.23;80.90
70952;BME280;67274;55.810;37.376;2023-01-31T00:41:18;98016.44;;;-1.27;81.46
70952;BME280;67274;55.810;37.376;2023-01-31T00:43:44;98017.72;;;-1.23;81.27
70952;BME280;67274;55.810;37.376;2023-01-31T00:46:11;98016.81;;;-1.31;81.02
70952;BME280;67274;55.810;37.376;2023-01-31T00:48:37;98019.13;;;-1.27;81.55
70952;BME280;67274;55.810;37.376;2023-01-31T00:51:04;98004.84;;;-1.35;81.20
70952;BME280;67274;55.810;37.376;2023-01-31T00:53:30;98022.63;;;-1.27;81.22
70952;BME280;67274;55.810;37.376;2023-01-31T00:56:06;98029.63;;;-1.26;80.94
70952;BME280;67274;55.810;37.376;2023-01-31T00:58:34;98024.28;;;-1.26;81.40
70952;BME280;67274;55.810;37.376;2023-01-31T01:01:11;98020.78;;;-1.26;81.24
70952;BME280;67274;55.810;37.376;2023-01-31T01:03:39;98034.22;;;-1.20;81.29
70952;BME280;67274;55.810;37.376;2023-01-31T01:06:06;98035.88;;;-1.19;80.76
70952;BME280;67274;55.810;37.376;2023-01-31T01:08:34;98021.41;;;-1.24;81.39
70952;BME280;67274;55.810;37.376;2023-01-31T01:11:16;98011.47;;;-1.31;80.79
70952;BME280;67274;55.810;37.376;2023-01-31T01:13:43;98029.50;;;-1.18;81.34
70952;BME280;67274;55.810;37.376;2023-01-31T01:16:15;98019.56;;;-1.24;81.56
70952;BME280;67274;55.810;37.376;2023-01-31T01:18:44;98017.72;;;-1.23;81.49
70952;BME280;67274;55.810;37.376;2023-01-31T01:21:19;98026.06;;;-1.12;81.21
70952;BME280;67274;55.810;37.376;2023-01-31T01:23:46;98029.56;;;-1.11;81.26
70952;BME280;67274;55.810;37.376;2023-01-31T01:26:23;98032.03;;;-1.10;80.65
70952;BME280;67274;55.810;37.376;2023-01-31T01:28:50;98030.38;;;-1.11;81.22
70952;BME280;67274;55.810;37.376;2023-01-31T01:31:18;98027.66;;;-1.17;80.61
70952;BME280;67274;55.810;37.376;2023-01-31T01:33:45;98023.50;;;-1.20;81.00
70952;BME280;67274;55.810;37.376;2023-01-31T01:36:14;98039.44;;;-1.12;80.96
70952;BME280;67274;55.810;37.376;2023-01-31T01:38:47;98022.69;;;-1.20;81.07
70952;BME280;67274;55.810;37.376;2023-01-31T01:41:13;98036.31;;;-1.15;80.42
70952;BME280;67274;55.810;37.376;2023-01-31T01:43:48;98042.53;;;-1.08;80.92
70952;BME280;67274;55.810;37.376;2023-01-31T01:46:24;98041.72;;;-1.09;80.86
70952;BME280;67274;55.810;37.376;2023-01-31T01:49:05;98040.06;;;-1.10;80.52
70952;BME280;67274;55.810;37.376;2023-01-31T01:51:38;98042.53;;;-1.08;80.92
70952;BME280;67274;55.810;37.376;2023-01-31T01:54:08;98040.31;;;-1.05;81.09
70952;BME280;67274;55.810;37.376;2023-01-31T01:56:42;98035.78;;;-1.04;81.06
70952;BME280;67274;55.810;37.376;2023-01-31T01:59:23;98034.78;;;-1.03;80.90
70952;BME280;67274;55.810;37.376;2023-01-31T02:01:52;98022.78;;;-1.07;80.81
70952;BME280;67274;55.810;37.376;2023-01-31T02:04:24;98032.47;;;-1.06;80.38
70952;BME280;67274;55.810;37.376;2023-01-31T02:06:53;98025.47;;;-1.07;80.72
70952;BME280;67274;55.810;37.376;2023-01-31T02:09:51;98037.63;;;-1.05;80.58
70952;BME280;67274;55.810;37.376;2023-01-31T02:12:19;98023.00;;;-1.09;80.51
70952;BME280;67274;55.810;37.376;2023-01-31T02:16:04;98028.78;;;-1.05;80.87
70952;BME280;67274;55.810;37.376;2023-01-31T02:18:30;98013.50;;;-1.11;80.98
70952;BME280;67274;55.810;37.376;2023-01-31T02:41:08;98037.06;;;-1.00;81.18
70952;BME280;67274;55.810;37.376;2023-01-31T02:47:00;98028.41;;;-1.02;80.96
70952;BME280;67274;55.810;37.376;2023-01-31T02:49:47;98027.56;;;-1.03;80.68
70952;BME280;67274;55.810;37.376;2023-01-31T02:52:30;98025.31;;;-0.99;80.04
70952;BME280;67274;55.810;37.376;2023-01-31T02:55:09;98036.09;;;-0.92;80.69
70952;BME280;67274;55.810;37.376;2023-01-31T02:57:57;98031.94;;;-0.95;80.75
70952;BME280;67274;55.810;37.376;2023-01-31T03:00:26;98030.50;;;-0.98;80.45
70952;BME280;67274;55.810;37.376;2023-01-31T03:02:54;98027.19;;;-1.00;79.95
70952;BME280;67274;55.810;37.376;2023-01-31T03:05:22;98018.47;;;-1.08;80.86
70952;BME280;67274;55.810;37.376;2023-01-31T03:07:54;98029.84;;;-1.00;81.00
70952;BME280;67274;55.810;37.376;2023-01-31T03:10:55;98032.53;;;-1.00;80.11
70952;BME280;67274;55.810;37.376;2023-01-31T03:19:25;98037.25;;;-1.02;80.72
70952;BME280;67274;55.810;37.376;2023-01-31T03:22:06;98044.66;;;-1.04;80.08
70952;BME280;67274;55.810;37.376;2023-01-31T03:24:35;98051.28;;;-1.00;80.42
70952;BME280;67274;55.810;37.376;2023-01-31T03:27:03;98046.69;;;-1.06;81.10
70952;BME280;67274;55.810;37.376;2023-01-31T03:29:33;98050.81;;;-1.03;80.57
70952;BME280;67274;55.810;37.376;2023-01-31T03:32:23;98058.47;;;-1.00;80.01
70952;BME280;67274;55.810;37.376;2023-01-31T03:34:52;98047.31;;;-1.04;79.97
70952;BME280;67274;55.810;37.376;2023-01-31T03:37:38;98053.50;;;-1.03;80.83
70952;BME280;67274;55.810;37.376;2023-01-31T03:40:20;98035.34;;;-1.08;80.84
70952;BME280;67274;55.810;37.376;2023-01-31T03:42:56;98050.63;;;-1.02;80.71
70952;BME280;67274;55.810;37.376;2023-01-31T03:45:40;98054.34;;;-1.03;80.47
70952;BME280;67274;55.810;37.376;2023-01-31T03:48:09;98049.16;;;-1.04;80.39
70952;BME280;67274;55.810;37.376;2023-01-31T03:50:44;98061.16;;;-1.00;80.01
70952;BME280;67274;55.810;37.376;2023-01-31T03:53:17;98071.03;;;-1.01;80.70
70952;BME280;67274;55.810;37.376;2023-01-31T03:55:50;98063.38;;;-1.04;80.55
70952;BME280;67274;55.810;37.376;2023-01-31T03:58:26;98066.69;;;-1.02;80.02
70952;BME280;67274;55.810;37.376;2023-01-31T04:00:58;98053.69;;;-1.05;80.74
70952;BME280;67274;55.810;37.376;2023-01-31T04:03:42;98069.44;;;-0.95;80.53
70952;BME280;67274;55.810;37.376;2023-01-31T04:06:10;98061.97;;;-1.00;80.61
70952;BME280;67274;55.810;37.376;2023-01-31T04:08:37;98064.47;;;-0.98;80.57
70952;BME280;67274;55.810;37.376;2023-01-31T04:11:09;98067.59;;;-0.94;80.79
70952;BME280;67274;55.810;37.376;2023-01-31T04:13:36;98057.84;;;-1.02;80.77
70952;BME280;67274;55.810;37.376;2023-01-31T04:16:03;98070.41;;;-1.03;80.57
70952;BME280;67274;55.810;37.376;2023-01-31T04:18:29;98073.50;;;-0.99;80.95
70952;BME280;67274;55.810;37.376;2023-01-31T04:20:55;98061.97;;;-1.00;81.27
70952;BME280;67274;55.810;37.376;2023-01-31T04:23:21;98073.31;;;-0.98;80.19
70952;BME280;67274;55.810;37.376;2023-01-31T04:25:47;98067.28;;;-1.06;80.29
70952;BME280;67274;55.810;37.376;2023-01-31T04:28:12;98082.38;;;-0.99;80.95
70952;BME280;67274;55.810;37.376;2023-01-31T04:30:38;98084.22;;;-0.99;80.87
70952;BME280;67274;55.810;37.376;2023-01-31T04:33:04;98090.59;;;-1.00;80.48
70952;BME280;67274;55.810;37.376;2023-01-31T04:35:30;98078.88;;;-0.99;80.68
70952;BME280;67274;55.810;37.376;2023-01-31T04:37:56;98089.19;;;-0.96;81.11
70952;BME280;67274;55.810;37.376;2023-01-31T04:40:22;98074.66;;;-1.08;80.80
70952;BME280;67274;55.810;37.376;2023-01-31T04:42:49;98102.56;;;-0.96;80.59
70952;BME280;67274;55.810;37.376;2023-01-31T04:45:15;98094.75;;;-0.98;81.25
70952;BME280;67274;55.810;37.376;2023-01-31T04:47:41;98102.38;;;-0.94;81.28
70952;BME280;67274;55.810;37.376;2023-01-31T04:50:08;98112.50;;;-0.90;80.78
70952;BME280;67274;55.810;37.376;2023-01-31T04:52:34;98095.56;;;-0.97;81.02
70952;BME280;67274;55.810;37.376;2023-01-31T04:55:00;98097.66;;;-0.92;80.78
70952;BME280;67274;55.810;37.376;2023-01-31T04:57:26;98088.16;;;-0.95;81.11
70952;BME280;67274;55.810;37.376;2023-01-31T04:59:52;98094.34;;;-0.94;81.08
70952;BME280;67274;55.810;37.376;2023-01-31T05:02:18;98087.53;;;-0.97;80.62
70952;BME280;67274;55.810;37.376;2023-01-31T05:04:44;98097.47;;;-0.91;80.97
70952;BME280;67274;55.810;37.376;2023-01-31T05:07:09;98095.00;;;-0.92;80.50
70952;BME280;67274;55.810;37.376;2023-01-31T05:09:35;98107.81;;;-0.88;80.81
70952;BME280;67274;55.810;37.376;2023-01-31T05:12:01;98097.22;;;-0.96;81.23
70952;BME280;67274;55.810;37.376;2023-01-31T05:14:27;98109.41;;;-0.93;80.63
70952;BME280;67274;55.810;37.376;2023-01-31T05:16:53;98127.75;;;-0.90;80.80
70952;BME280;67274;55.810;37.376;2023-01-31T05:19:19;98119.66;;;-0.97;81.04
70952;BME280;67274;55.810;37.376;2023-01-31T05:21:45;98129.78;;;-0.92;81.63
70952;BME280;67274;55.810;37.376;2023-01-31T05:24:21;98120.50;;;-0.96;81.69
70952;BME280;67274;55.810;37.376;2023-01-31T05:26:47;98129.78;;;-0.92;81.21
70952;BME280;67274;55.810;37.376;2023-01-31T05:29:15;98125.47;;;-0.93;80.96
70952;BME280;67274;55.810;37.376;2023-01-31T05:31:41;98128.53;;;-0.96;81.65
70952;BME280;67274;55.810;37.376;2023-01-31T05:34:07;98124.81;;;-0.95;81.60
70952;BME280;67274;55.810;37.376;2023-01-31T05:36:35;98129.59;;;-0.91;81.74
70952;BME280;67274;55.810;37.376;2023-01-31T05:39:00;98113.28;;;-0.96;81.06
70952;BME280;67274;55.810;37.376;2023-01-31T05:41:26;98121.75;;;-0.92;80.75
70952;BME280;67274;55.810;37.376;2023-01-31T05:43:52;98122.16;;;-0.95;81.37
70952;BME280;67274;55.810;37.376;2023-01-31T05:46:18;98123.41;;;-0.91;81.68
70952;BME280;67274;55.810;37.376;2023-01-31T05:48:44;98130.69;;;-0.85;81.58
70952;BME280;67274;55.810;37.376;2023-01-31T05:51:10;98129.03;;;-0.86;81.71
70952;BME280;67274;55.810;37.376;2023-01-31T05:53:36;98129.03;;;-0.86;81.75
70952;BME280;67274;55.810;37.376;2023-01-31T05:56:02;98124.06;;;-0.89;81.67
70952;BME280;67274;55.810;37.376;2023-01-31T05:58:27;98141.78;;;-0.88;81.87
70952;BME280;67274;55.810;37.376;2023-01-31T06:00:54;98136.81;;;-0.91;81.57
70952;BME280;67274;55.810;37.376;2023-01-31T06:03:21;98135.34;;;-0.94;81.35
70952;BME280;67274;55.810;37.376;2023-01-31T06:05:47;98139.94;;;-0.88;81.31
70952;BME280;67274;55.810;37.376;2023-01-31T06:08:13;98143.44;;;-0.87;81.89
70952;BME280;67274;55.810;37.376;2023-01-31T06:10:38;98146.13;;;-0.87;81.14
70952;BME280;67274;55.810;37.376;2023-01-31T06:13:04;98152.56;;;-0.82;81.28
70952;BME280;67274;55.810;37.376;2023-01-31T06:15:32;98143.69;;;-0.82;81.81
70952;BME280;67274;55.810;37.376;2023-01-31T06:17:58;98151.34;;;-0.79;81.17
70952;BME280;67274;55.810;37.376;2023-01-31T06:20:25;98150.94;;;-0.76;80.95
70952;BME280;67274;55.810;37.376;2023-01-31T06:22:51;98164.78;;;-0.73;81.03
70952;BME280;67274;55.810;37.376;2023-01-31T06:25:17;98163.75;;;-0.72;81.12
70952;BME280;67274;55.810;37.376;2023-01-31T06:27:43;98154.28;;;-0.74;80.89
70952;BME280;67274;55.810;37.376;2023-01-31T06:30:09;98158.03;;;-0.69;81.08
70952;BME280;67274;55.810;37.376;2023-01-31T06:32:36;98160.50;;;-0.67;81.73
70952;BME280;67274;55.810;37.376;2023-01-31T06:35:03;98150.75;;;-0.75;81.32
70952;BME280;67274;55.810;37.376;2023-01-31T06:37:29;98159.44;;;-0.73;80.93
70952;BME280;67274;55.810;37.376;2023-01-31T06:39:55;98178.69;;;-0.62;80.71
70952;BME280;67274;55.810;37.376;2023-01-31T06:42:21;98188.75;;;-0.64;80.69
70952;BME280;67274;55.810;37.376;2023-01-31T06:44:47;98189.97;;;-0.67;81.26
70952;BME280;67274;55.810;37.376;2023-01-31T06:50:35;98188.75;;;-0.64;80.85
70952;BME280;67274;55.810;37.376;2023-01-31T06:53:01;98168.28;;;-0.72;80.69
70952;BME280;67274;55.810;37.376;2023-01-31T06:55:27;98188.13;;;-0.67;80.85
70952;BME280;67274;55.810;37.376;2023-01-31T06:57:53;98193.94;;;-0.63;80.68
70952;BME280;67274;55.810;37.376;2023-01-31T07:00:21;98196.22;;;-0.60;81.23
70952;BME280;67274;55.810;37.376;2023-01-31T07:03:07;98200.56;;;-0.59;80.72
70952;BME280;67274;55.810;37.376;2023-01-31T07:05:35;98193.75;;;-0.61;80.84
70952;BME280;67274;55.810;37.376;2023-01-31T07:08:01;98194.63;;;-0.54;80.66
70952;BME280;67274;55.810;37.376;2023-01-31T07:10:36;98201.00;;;-0.55;80.58
70952;BME280;67274;55.810;37.376;2023-01-31T07:13:02;98206.81;;;-0.52;80.85
70952;BME280;67274;55.810;37.376;2023-01-31T07:15:28;98203.03;;;-0.57;80.95
70952;BME280;67274;55.810;37.376;2023-01-31T07:18:00;98207.81;;;-0.53;80.36
70952;BME280;67274;55.810;37.376;2023-01-31T07:20:41;98204.91;;;-0.58;80.83
70952;BME280;67274;55.810;37.376;2023-01-31T07:23:08;98219.19;;;-0.51;80.66
70952;BME280;67274;55.810;37.376;2023-01-31T07:25:34;98213.00;;;-0.51;80.50
70952;BME280;67274;55.810;37.376;2023-01-31T07:31:22;98226.44;;;-0.45;80.54
70952;BME280;67274;55.810;37.376;2023-01-31T07:33:53;98225.63;;;-0.45;80.38
70952;BME280;67274;55.810;37.376;2023-01-31T07:36:19;98215.03;;;-0.53;80.37
70952;BME280;67274;55.810;37.376;2023-01-31T07:38:55;98236.34;;;-0.45;80.20
70952;BME280;67274;55.810;37.376;2023-01-31T07:41:23;98229.78;;;-0.43;80.85
70952;BME280;67274;55.810;37.376;2023-01-31T07:43:49;98214.66;;;-0.50;81.06
70952;BME280;67274;55.810;37.376;2023-01-31T07:46:16;98229.56;;;-0.41;80.58
70952;BME280;67274;55.810;37.376;2023-01-31T07:48:42;98235.81;;;-0.34;80.73
70952;BME280;67274;55.810;37.376;2023-01-31T07:51:08;98233.16;;;-0.34;80.24
70952;BME280;67274;55.810;37.376;2023-01-31T07:53:36;98236.41;;;-0.39;80.77
70952;BME280;67274;55.810;37.376;2023-01-31T07:56:27;98241.00;;;-0.32;80.87
70952;BME280;67274;55.810;37.376;2023-01-31T07:58:53;98239.78;;;-0.30;81.06
70952;BME280;67274;55.810;37.376;2023-01-31T08:01:22;98238.31;;;-0.32;80.37
70952;BME280;67274;55.810;37.376;2023-01-31T08:04:09;98256.09;;;-0.25;80.82
70952;BME280;67274;55.810;37.376;2023-01-31T08:07:00;98241.44;;;-0.29;81.08
70952;BME280;67274;55.810;37.376;2023-01-31T08:09:32;98247.03;;;-0.24;79.94
70952;BME280;67274;55.810;37.376;2023-01-31T08:15:05;98253.81;;;-0.28;79.89
70952;BME280;67274;55.810;37.376;2023-01-31T08:17:31;98266.00;;;-0.25;80.69
70952;BME280;67274;55.810;37.376;2023-01-31T08:19:57;98268.28;;;-0.22;80.41
70952;BME280;67274;55.810;37.376;2023-01-31T08:22:24;98264.78;;;-0.23;80.51
70952;BME280;67274;55.810;37.376;2023-01-31T08:24:50;98272.06;;;-0.17;80.69
70952;BME280;67274;55.810;37.376;2023-01-31T08:27:24;98279.91;;;-0.15;80.89
70952;BME280;67274;55.810;37.376;2023-01-31T08:29:50;98271.91;;;-0.09;80.68
70952;BME280;67274;55.810;37.376;2023-01-31T08:32:16;98282.44;;;-0.07;80.73
70952;BME280;67274;55.810;37.376;2023-01-31T08:34:42;98267.59;;;-0.10;79.86
70952;BME280;67274;55.810;37.376;2023-01-31T08:37:08;98275.88;;;-0.05;80.57
70952;BME280;67274;55.810;37.376;2023-01-31T08:39:34;98283.91;;;-0.05;80.24
70952;BME280;67274;55.810;37.376;2023-01-31T08:41:59;98269.03;;;-0.07;80.76
70952;BME280;67274;55.810;37.376;2023-01-31T08:44:26;98276.31;;;-0.01;80.51
70952;BME280;67274;55.810;37.376;2023-01-31T08:47:04;98282.91;;;0.03;79.68
70952;BME280;67274;55.810;37.376;2023-01-31T08:49:33;98278.81;;;0.07;80.06
70952;BME280;67274;55.810;37.376;2023-01-31T08:52:01;98289.16;;;0.10;79.68
70952;BME280;67274;55.810;37.376;2023-01-31T08:54:30;98271.81;;;0.06;80.49
70952;BME280;67274;55.810;37.376;2023-01-31T08:57:05;98277.66;;;0.16;79.80
70952;BME280;67274;55.810;37.376;2023-01-31T08:59:31;98261.31;;;0.11;80.13
70952;BME280;67274;55.810;37.376;2023-01-31T09:01:57;98266.09;;;0.16;79.18
70952;BME280;67274;55.810;37.376;2023-01-31T09:04:25;98269.47;;;0.24;79.51
70952;BME280;67274;55.810;37.376;2023-01-31T09:06:51;98276.28;;;0.27;79.57
70952;BME280;67274;55.810;37.376;2023-01-31T09:09:21;98262.25;;;0.25;80.03
70952;BME280;67274;55.810;37.376;2023-01-31T09:11:47;98269.75;;;0.36;78.79
70952;BME280;67274;55.810;37.376;2023-01-31T09:14:12;98258.81;;;0.38;79.64
70952;BME280;67274;55.810;37.376;2023-01-31T09:16:38;98251.44;;;0.46;80.03
70952;BME280;67274;55.810;37.376;2023-01-31T09:19:10;98252.34;;;0.60;78.92
70952;BME280;67274;55.810;37.376;2023-01-31T09:21:39;98244.75;;;0.63;78.94
70952;BME280;67274;55.810;37.376;2023-01-31T09:24:08;98248.91;;;0.73;78.64
70952;BME280;67274;55.810;37.376;2023-01-31T09:26:34;98265.06;;;0.79;78.59
70952;BME280;67274;55.810;37.376;2023-01-31T09:29:00;98257.22;;;0.84;78.44
70952;BME280;67274;55.810;37.376;2023-01-31T09:31:26;98259.28;;;0.82;79.29
70952;BME280;67274;55.810;37.376;2023-01-31T09:33:53;98259.72;;;0.86;78.81
70952;BME280;67274;55.810;37.376;2023-01-31T09:36:21;98265.69;;;0.81;78.34
70952;BME280;67274;55.810;37.376;2023-01-31T09:38:47;98273.31;;;0.78;78.56
70952;BME280;67274;55.810;37.376;2023-01-31T09:41:22;98260.66;;;0.65;78.49
70952;BME280;67274;55.810;37.376;2023-01-31T09:43:53;98268.78;;;0.78;79.15
70952;BME280;67274;55.810;37.376;2023-01-31T09:46:25;98262.97;;;0.75;78.91
70952;BME280;67274;55.810;37.376;2023-01-31T09:48:55;98260.91;;;0.77;78.20
70952;BME280;67274;55.810;37.376;2023-01-31T09:51:22;98251.41;;;0.74;78.39
70952;BME280;67274;55.810;37.376;2023-01-31T09:53:48;98265.28;;;0.84;78.35
70952;BME280;67274;55.810;37.376;2023-01-31T10:05:10;98270.84;;;0.83;78.71
70952;BME280;67274;55.810;37.376;2023-01-31T10:10:43;98267.97;;;0.84;77.99
70952;BME280;67274;55.810;37.376;2023-01-31T10:16:31;98278.72;;;0.84;77.85
70952;BME280;67274;55.810;37.376;2023-01-31T10:19:12;98280.38;;;0.85;78.64
70952;BME280;67274;55.810;37.376;2023-01-31T10:21:48;98286.56;;;0.86;78.51
70952;BME280;67274;55.810;37.376;2023-01-31T10:26:50;98288.66;;;0.90;78.87
70952;BME280;67274;55.810;37.376;2023-01-31T10:29:23;98292.78;;;0.86;78.82
70952;BME280;67274;55.810;37.376;2023-01-31T10:32:03;98287.59;;;0.85;78.25
70952;BME280;67274;55.810;37.376;2023-01-31T10:34:34;98294.03;;;0.90;78.88
70952;BME280;67274;55.810;37.376;2023-01-31T10:37:15;98301.06;;;0.91;78.24
70952;BME280;67274;55.810;37.376;2023-01-31T10:39:49;98297.13;;;0.87;78.79
70952;BME280;67274;55.810;37.376;2023-01-31T10:42:37;98303.53;;;0.93;78.55
70952;BME280;67274;55.810;37.376;2023-01-31T10:47:35;98314.69;;;0.90;78.14
70952;BME280;67274;55.810;37.376;2023-01-31T10:50:13;98305.13;;;0.81;77.79
70952;BME280;67274;55.810;37.376;2023-01-31T10:58:01;98319.34;;;0.75;78.58
70952;BME280;67274;55.810;37.376;2023-01-31T11:00:30;98297.59;;;0.63;78.50
70952;BME280;67274;55.810;37.376;2023-01-31T11:02:57;98306.31;;;0.72;78.38
70952;BME280;67274;55.810;37.376;2023-01-31T11:05:26;98311.06;;;0.70;79.48
70952;BME280;67274;55.810;37.376;2023-01-31T11:07:56;98308.38;;;0.70;78.54
70952;BME280;67274;55.810;37.376;2023-01-31T11:10:30;98313.34;;;0.73;78.45
70952;BME280;67274;55.810;37.376;2023-01-31T11:12:59;98307.16;;;0.72;78.69
70952;BME280;67274;55.810;37.376;2023-01-31T11:15:38;98295.19;;;0.75;79.21
70952;BME280;67274;55.810;37.376;2023-01-31T11:18:05;98288.16;;;0.74;78.56
70952;BME280;67274;55.810;37.376;2023-01-31T11:20:43;98303.31;;;0.88;79.17
70952;BME280;67274;55.810;37.376;2023-01-31T11:23:13;98289.88;;;0.88;77.95
70952;BME280;67274;55.810;37.376;2023-01-31T11:25:46;98295.69;;;0.91;78.08
70952;BME280;67274;55.810;37.376;2023-01-31T11:28:39;98292.41;;;0.96;78.92
70952;BME280;67274;55.810;37.376;2023-01-31T11:31:14;98286.81;;;0.91;77.99
70952;BME280;67274;55.810;37.376;2023-01-31T11:34:02;98296.53;;;0.98;77.65
70952;BME280;67274;55.810;37.376;2023-01-31T11:36:42;98293.66;;;1.00;78.60
70952;BME280;67274;55.810;37.376;2023-01-31T11:41:49;98294.25;;;0.95;77.95
70952;BME280;67274;55.810;37.376;2023-01-31T11:44:17;98293.66;;;1.00;77.35
70952;BME280;67274;55.810;37.376;2023-01-31T11:46:48;98305.66;;;1.04;78.06
70952;BME280;67274;55.810;37.376;2023-01-31T11:49:38;98300.72;;;1.08;78.64
70952;BME280;67274;55.810;37.376;2023-01-31T11:52:28;98312.09;;;1.10;78.18
70952;BME280;67274;55.810;37.376;2023-01-31T11:54:57;98296.78;;;1.04;77.99
70952;BME280;67274;55.810;37.376;2023-01-31T11:57:44;98319.28;;;1.03;78.35
70952;BME280;67274;55.810;37.376;2023-01-31T12:02:39;98322.34;;;0.93;77.85
70952;BME280;67274;55.810;37.376;2023-01-31T12:05:14;98324.00;;;0.94;78.29
70952;BME280;67274;55.810;37.376;2023-01-31T12:08:03;98320.91;;;0.97;78.84
70952;BME280;67274;55.810;37.376;2023-01-31T12:14:46;98324.22;;;0.99;77.51
70952;BME280;67274;55.810;37.376;2023-01-31T12:17:15;98286.13;;;0.82;78.75
70952;BME280;67274;55.810;37.376;2023-01-31T12:20:06;98296.50;;;0.92;78.31
70952;BME280;67274;55.810;37.376;2023-01-31T12:22:45;98288.66;;;0.90;77.85
70952;BME280;67274;55.810;37.376;2023-01-31T12:34:34;98280.13;;;0.80;77.98
70952;BME280;67274;55.810;37.376;2023-01-31T12:46:52;98298.09;;;0.80;77.84
70952;BME280;67274;55.810;37.376;2023-01-31T12:49:40;98312.16;;;0.82;78.34
70952;BME280;67274;55.810;37.376;2023-01-31T13:00:11;98298.94;;;0.80;78.09
70952;BME280;67274;55.810;37.376;2023-01-31T13:02:50;98317.22;;;0.98;78.47
70952;BME280;67274;55.810;37.376;2023-01-31T13:05:41;98293.38;;;0.82;77.82
70952;BME280;67274;55.810;37.376;2023-01-31T13:08:22;98333.31;;;0.98;78.09
70952;BME280;67274;55.810;37.376;2023-01-31T13:14:20;98317.09;;;0.78;78.65
70952;BME280;67274;55.810;37.376;2023-01-31T13:16:51;98351.28;;;0.97;78.31
70952;BME280;67274;55.810;37.376;2023-01-31T13:19:23;98342.38;;;0.90;77.75
70952;BME280;67274;55.810;37.376;2023-01-31T13:21:55;98370.69;;;0.93;77.76
70952;BME280;67274;55.810;37.376;2023-01-31T13:24:27;98337.25;;;0.68;77.95
70952;BME280;67274;55.810;37.376;2023-01-31T13:27:01;98344.53;;;0.74;78.02
70952;BME280;67274;55.810;37.376;2023-01-31T13:29:41;98351.06;;;0.64;78.26
70952;BME280;67274;55.810;37.376;2023-01-31T13:37:19;98353.91;;;0.56;78.50
70952;BME280;67274;55.810;37.376;2023-01-31T13:39:53;98395.16;;;0.77;78.95
70952;BME280;67274;55.810;37.376;2023-01-31T13:42:21;98354.94;;;0.55;78.24
70952;BME280;67274;55.810;37.376;2023-01-31T13:44:48;98382.66;;;0.62;78.09
70952;BME280;67274;55.810;37.376;2023-01-31T13:49:49;98366.88;;;0.53;78.20
70952;BME280;67274;55.810;37.376;2023-01-31T13:52:25;98399.66;;;0.70;78.59
70952;BME280;67274;55.810;37.376;2023-01-31T13:54:57;98399.25;;;0.73;78.38
70952;BME280;67274;55.810;37.376;2023-01-31T13:59:57;98381.00;;;0.61;78.66
70952;BME280;67274;55.810;37.376;2023-01-31T14:02:23;98378.13;;;0.63;78.96
70952;BME280;67274;55.810;37.376;2023-01-31T14:04:49;98371.47;;;0.59;78.51
70952;BME280;67274;55.810;37.376;2023-01-31T14:07:18;98386.81;;;0.65;78.19
70952;BME280;67274;55.810;37.376;2023-01-31T14:12:35;98394.28;;;0.70;78.96
70952;BME280;67274;55.810;37.376;2023-01-31T14:15:08;98393.25;;;0.71;78.23
70952;BME280;67274;55.810;37.376;2023-01-31T14:24:02;98334.09;;;0.29;78.54
70952;BME280;67274;55.810;37.376;2023-01-31T14:26:49;98402.91;;;0.65;78.28
70952;BME280;67274;55.810;37.376;2023-01-31T14:30:09;98412.44;;;0.68;79.13
70952;BME280;67274;55.810;37.376;2023-01-31T14:36:32;98412.63;;;0.66;79.02
70952;BME280;67274;55.810;37.376;2023-01-31T14:45:10;98416.34;;;0.65;79.35
70952;BME280;67274;55.810;37.376;2023-01-31T14:51:06;98415.31;;;0.66;78.49
70952;BME280;67274;55.810;37.376;2023-01-31T14:54:00;98411.41;;;0.69;79.07
70952;BME280;67274;55.810;37.376;2023-01-31T14:59:34;98418.44;;;0.70;79.00
70952;BME280;67274;55.810;37.376;2023-01-31T15:02:20;98401.97;;;0.51;78.50
70952;BME280;67274;55.810;37.376;2023-01-31T15:05:01;98415.50;;;0.64;78.78
70952;BME280;67274;55.810;37.376;2023-01-31T15:07:28;98409.44;;;0.56;79.48
70952;BME280;67274;55.810;37.376;2023-01-31T15:09:54;98416.09;;;0.60;79.50
70952;BME280;67274;55.810;37.376;2023-01-31T15:12:51;98442.22;;;0.73;79.46
70952;BME280;67274;55.810;37.376;2023-01-31T15:15:37;98408.63;;;0.55;79.31
70952;BME280;67274;55.810;37.376;2023-01-31T15:18:29;98401.59;;;0.54;79.07
70952;BME280;67274;55.810;37.376;2023-01-31T15:21:01;98411.75;;;0.59;79.40
70952;BME280;67274;55.810;37.376;2023-01-31T15:23:47;98405.50;;;0.52;79.23
70952;BME280;67274;55.810;37.376;2023-01-31T15:26:32;98442.22;;;0.73;78.82
70952;BME280;67274;55.810;37.376;2023-01-31T15:29:22;98442.22;;;0.73;78.95
70952;BME280;67274;55.810;37.376;2023-01-31T15:31:53;98405.88;;;0.49;79.48
70952;BME280;67274;55.810;37.376;2023-01-31T15:34:28;98444.88;;;0.73;79.67
70952;BME280;67274;55.810;37.376;2023-01-31T15:39:33;98446.34;;;0.75;79.52
70952;BME280;67274;55.810;37.376;2023-01-31T15:44:49;98406.94;;;0.54;79.87